sensor_id;sensor_type;location;lat;lon;timestamp;P1;durP1;ratioP1;P2;durP2;ratioP2
50757;SDS011;36732;47.980;11.652;2023-11-22T00:00:28;5.28;;;4.60;;
50757;SDS011;36732;47.980;11.652;2023-11-22T00:02:54;6.00;;;5.40;;
50757;SDS011;36732;47.980;11.652;2023-11-22T00:05:20;6.10;;;5.50;;
50757;SDS011;36732;47.980;11.652;2023-11-22T00:07:46;7.10;;;5.88;;
50757;SDS011;36732;47.980;11.652;2023-11-22T00:10:12;6.45;;;5.07;;
50757;SDS011;36732;47.980;11.652;2023-11-22T00:12:38;5.72;;;5.03;;
50757;SDS011;36732;47.980;11.652;2023-11-22T00:15:04;5.75;;;4.85;;
50757;SDS011;36732;47.980;11.652;2023-11-22T00:17:32;6.32;;;5.32;;
50757;SDS011;36732;47.980;11.652;2023-11-22T00:19:59;5.68;;;5.07;;
50757;SDS011;36732;47.980;11.652;2023-11-22T00:22:27;7.40;;;5.75;;
50757;SDS011;36732;47.980;11.652;2023-11-22T00:24:53;8.90;;;5.63;;
50757;SDS011;36732;47.980;11.652;2023-11-22T00:27:19;6.68;;;5.22;;
50757;SDS011;36732;47.980;11.652;2023-11-22T00:29:44;11.13;;;10.00;;
50757;SDS011;36732;47.980;11.652;2023-11-22T00:32:11;11.13;;;10.05;;
50757;SDS011;36732;47.980;11.652;2023-11-22T00:34:37;9.50;;;7.47;;
50757;SDS011;36732;47.980;11.652;2023-11-22T00:37:03;6.05;;;5.50;;
50757;SDS011;36732;47.980;11.652;2023-11-22T00:39:29;7.70;;;5.88;;
50757;SDS011;36732;47.980;11.652;2023-11-22T00:41:54;6.60;;;5.50;;
50757;SDS011;36732;47.980;11.652;2023-11-22T00:44:20;7.65;;;5.55;;
50757;SDS011;36732;47.980;11.652;2023-11-22T00:46:47;6.97;;;5.28;;
50757;SDS011;36732;47.980;11.652;2023-11-22T00:49:12;6.90;;;4.97;;
50757;SDS011;36732;47.980;11.652;2023-11-22T00:51:38;5.18;;;4.68;;
50757;SDS011;36732;47.980;11.652;2023-11-22T00:54:04;5.18;;;4.68;;
50757;SDS011;36732;47.980;11.652;2023-11-22T00:56:30;7.20;;;5.10;;
50757;SDS011;36732;47.980;11.652;2023-11-22T00:58:57;5.80;;;5.20;;
50757;SDS011;36732;47.980;11.652;2023-11-22T01:01:24;7.35;;;4.97;;
50757;SDS011;36732;47.980;11.652;2023-11-22T01:03:50;7.68;;;5.38;;
50757;SDS011;36732;47.980;11.652;2023-11-22T01:06:16;5.70;;;4.47;;
50757;SDS011;36732;47.980;11.652;2023-11-22T01:08:45;5.53;;;4.57;;
50757;SDS011;36732;47.980;11.652;2023-11-22T01:11:12;6.30;;;5.07;;
50757;SDS011;36732;47.980;11.652;2023-11-22T01:13:38;6.00;;;5.18;;
50757;SDS011;36732;47.980;11.652;2023-11-22T01:16:08;6.22;;;4.90;;
50757;SDS011;36732;47.980;11.652;2023-11-22T01:18:35;8.32;;;5.60;;
50757;SDS011;36732;47.980;11.652;2023-11-22T01:21:01;7.45;;;4.85;;
50757;SDS011;36732;47.980;11.652;2023-11-22T01:23:31;6.22;;;4.90;;
50757;SDS011;36732;47.980;11.652;2023-11-22T01:25:57;7.25;;;4.90;;
50757;SDS011;36732;47.980;11.652;2023-11-22T01:28:24;6.15;;;5.05;;
50757;SDS011;36732;47.980;11.652;2023-11-22T01:30:52;6.13;;;4.60;;
50757;SDS011;36732;47.980;11.652;2023-11-22T01:33:23;5.13;;;4.60;;
50757;SDS011;36732;47.980;11.652;2023-11-22T01:35:49;7.47;;;4.65;;
50757;SDS011;36732;47.980;11.652;2023-11-22T01:38:15;6.15;;;4.90;;
50757;SDS011;36732;47.980;11.652;2023-11-22T01:40:44;5.00;;;4.47;;
50757;SDS011;36732;47.980;11.652;2023-11-22T01:43:17;5.18;;;4.53;;
50757;SDS011;36732;47.980;11.652;2023-11-22T01:45:44;5.90;;;5.00;;
50757;SDS011;36732;47.980;11.652;2023-11-22T01:48:11;8.27;;;4.85;;
50757;SDS011;36732;47.980;11.652;2023-11-22T01:50:38;6.10;;;4.68;;
50757;SDS011;36732;47.980;11.652;2023-11-22T01:53:05;6.80;;;5.55;;
50757;SDS011;36732;47.980;11.652;2023-11-22T01:55:35;5.15;;;4.65;;
50757;SDS011;36732;47.980;11.652;2023-11-22T01:58:02;6.45;;;5.30;;
50757;SDS011;36732;47.980;11.652;2023-11-22T02:00:30;7.25;;;5.53;;
50757;SDS011;36732;47.980;11.652;2023-11-22T02:03:01;5.63;;;5.10;;
50757;SDS011;36732;47.980;11.652;2023-11-22T02:05:27;7.18;;;5.25;;
50757;SDS011;36732;47.980;11.652;2023-11-22T02:07:53;4.38;;;3.97;;
50757;SDS011;36732;47.980;11.652;2023-11-22T02:10:20;5.43;;;4.60;;
50757;SDS011;36732;47.980;11.652;2023-11-22T02:12:45;4.80;;;4.30;;
50757;SDS011;36732;47.980;11.652;2023-11-22T02:15:11;4.53;;;4.05;;
50757;SDS011;36732;47.980;11.652;2023-11-22T02:17:37;6.40;;;4.35;;
50757;SDS011;36732;47.980;11.652;2023-11-22T02:20:03;4.78;;;4.28;;
50757;SDS011;36732;47.980;11.652;2023-11-22T02:22:33;4.82;;;4.20;;
50757;SDS011;36732;47.980;11.652;2023-11-22T02:25:06;6.20;;;4.55;;
50757;SDS011;36732;47.980;11.652;2023-11-22T02:27:32;5.00;;;4.32;;
50757;SDS011;36732;47.980;11.652;2023-11-22T02:29:57;5.85;;;4.80;;
50757;SDS011;36732;47.980;11.652;2023-11-22T02:32:23;4.90;;;4.40;;
50757;SDS011;36732;47.980;11.652;2023-11-22T02:34:49;5.75;;;4.18;;
50757;SDS011;36732;47.980;11.652;2023-11-22T02:37:15;5.97;;;5.30;;
50757;SDS011;36732;47.980;11.652;2023-11-22T02:39:55;6.28;;;4.50;;
50757;SDS011;36732;47.980;11.652;2023-11-22T02:42:30;4.72;;;3.47;;
50757;SDS011;36732;47.980;11.652;2023-11-22T02:44:56;4.20;;;3.13;;
50757;SDS011;36732;47.980;11.652;2023-11-22T02:47:22;4.13;;;3.72;;
50757;SDS011;36732;47.980;11.652;2023-11-22T02:49:48;4.20;;;3.00;;
50757;SDS011;36732;47.980;11.652;2023-11-22T02:52:14;3.50;;;2.83;;
50757;SDS011;36732;47.980;11.652;2023-11-22T02:54:42;3.75;;;2.72;;
50757;SDS011;36732;47.980;11.652;2023-11-22T02:57:08;3.35;;;2.78;;
50757;SDS011;36732;47.980;11.652;2023-11-22T02:59:35;4.32;;;2.70;;
50757;SDS011;36732;47.980;11.652;2023-11-22T03:02:00;3.92;;;2.72;;
50757;SDS011;36732;47.980;11.652;2023-11-22T03:04:26;3.13;;;2.80;;
50757;SDS011;36732;47.980;11.652;2023-11-22T03:06:53;3.92;;;3.08;;
50757;SDS011;36732;47.980;11.652;2023-11-22T03:09:20;3.63;;;2.90;;
50757;SDS011;36732;47.980;11.652;2023-11-22T03:11:47;3.53;;;2.63;;
50757;SDS011;36732;47.980;11.652;2023-11-22T03:14:14;3.13;;;2.38;;
50757;SDS011;36732;47.980;11.652;2023-11-22T03:16:40;4.07;;;2.00;;
50757;SDS011;36732;47.980;11.652;2023-11-22T03:19:07;2.08;;;1.88;;
50757;SDS011;36732;47.980;11.652;2023-11-22T03:21:33;1.90;;;1.70;;
50757;SDS011;36732;47.980;11.652;2023-11-22T03:24:00;2.17;;;1.98;;
50757;SDS011;36732;47.980;11.652;2023-11-22T03:26:29;2.42;;;2.10;;
50757;SDS011;36732;47.980;11.652;2023-11-22T03:28:55;2.17;;;1.98;;
50757;SDS011;36732;47.980;11.652;2023-11-22T03:31:20;2.42;;;2.10;;
50757;SDS011;36732;47.980;11.652;2023-11-22T03:33:46;2.13;;;1.98;;
50757;SDS011;36732;47.980;11.652;2023-11-22T03:36:12;2.22;;;2.03;;
50757;SDS011;36732;47.980;11.652;2023-11-22T03:38:41;2.10;;;1.92;;
50757;SDS011;36732;47.980;11.652;2023-11-22T03:41:06;1.88;;;1.67;;
50757;SDS011;36732;47.980;11.652;2023-11-22T03:43:32;2.55;;;2.13;;
50757;SDS011;36732;47.980;11.652;2023-11-22T03:45:58;2.40;;;2.20;;
50757;SDS011;36732;47.980;11.652;2023-11-22T03:48:23;2.30;;;2.10;;
50757;SDS011;36732;47.980;11.652;2023-11-22T03:50:51;2.40;;;2.20;;
50757;SDS011;36732;47.980;11.652;2023-11-22T03:53:16;2.30;;;2.10;;
50757;SDS011;36732;47.980;11.652;2023-11-22T03:55:43;2.33;;;2.00;;
50757;SDS011;36732;47.980;11.652;2023-11-22T03:58:09;2.97;;;2.00;;
50757;SDS011;36732;47.980;11.652;2023-11-22T04:00:35;2.60;;;2.15;;
50757;SDS011;36732;47.980;11.652;2023-11-22T04:03:00;3.42;;;2.45;;
50757;SDS011;36732;47.980;11.652;2023-11-22T04:05:27;2.17;;;1.98;;
50757;SDS011;36732;47.980;11.652;2023-11-22T04:07:53;2.40;;;2.20;;
50757;SDS011;36732;47.980;11.652;2023-11-22T04:10:19;2.30;;;2.10;;
50757;SDS011;36732;47.980;11.652;2023-11-22T04:12:46;1.85;;;1.50;;
50757;SDS011;36732;47.980;11.652;2023-11-22T04:15:12;1.92;;;1.80;;
50757;SDS011;36732;47.980;11.652;2023-11-22T04:17:39;2.20;;;2.00;;
50757;SDS011;36732;47.980;11.652;2023-11-22T04:20:09;1.95;;;1.75;;
50757;SDS011;36732;47.980;11.652;2023-11-22T04:22:39;3.65;;;2.15;;
50757;SDS011;36732;47.980;11.652;2023-11-22T04:25:06;2.88;;;2.08;;
50757;SDS011;36732;47.980;11.652;2023-11-22T04:27:33;2.60;;;1.80;;
50757;SDS011;36732;47.980;11.652;2023-11-22T04:29:59;2.10;;;1.90;;
50757;SDS011;36732;47.980;11.652;2023-11-22T04:32:25;2.65;;;2.28;;
50757;SDS011;36732;47.980;11.652;2023-11-22T04:34:51;2.20;;;2.00;;
50757;SDS011;36732;47.980;11.652;2023-11-22T04:37:17;2.17;;;1.98;;
50757;SDS011;36732;47.980;11.652;2023-11-22T04:39:42;2.13;;;1.92;;
50757;SDS011;36732;47.980;11.652;2023-11-22T04:42:08;1.95;;;1.75;;
50757;SDS011;36732;47.980;11.652;2023-11-22T04:44:34;1.85;;;1.73;;
50757;SDS011;36732;47.980;11.652;2023-11-22T04:47:00;2.10;;;1.90;;
50757;SDS011;36732;47.980;11.652;2023-11-22T04:49:26;2.22;;;2.03;;
50757;SDS011;36732;47.980;11.652;2023-11-22T04:51:52;2.78;;;2.00;;
50757;SDS011;36732;47.980;11.652;2023-11-22T04:54:17;3.67;;;2.10;;
50757;SDS011;36732;47.980;11.652;2023-11-22T04:56:43;2.10;;;1.90;;
50757;SDS011;36732;47.980;11.652;2023-11-22T04:59:09;4.30;;;1.92;;
50757;SDS011;36732;47.980;11.652;2023-11-22T05:01:35;2.08;;;1.80;;
50757;SDS011;36732;47.980;11.652;2023-11-22T05:04:01;3.20;;;2.20;;
50757;SDS011;36732;47.980;11.652;2023-11-22T05:06:27;2.88;;;2.55;;
50757;SDS011;36732;47.980;11.652;2023-11-22T05:08:54;2.50;;;2.30;;
50757;SDS011;36732;47.980;11.652;2023-11-22T05:11:20;2.33;;;2.13;;
50757;SDS011;36732;47.980;11.652;2023-11-22T05:13:46;2.55;;;2.25;;
50757;SDS011;36732;47.980;11.652;2023-11-22T05:16:12;2.28;;;2.08;;
50757;SDS011;36732;47.980;11.652;2023-11-22T05:18:38;2.95;;;2.40;;
50757;SDS011;36732;47.980;11.652;2023-11-22T05:21:04;3.28;;;2.50;;
50757;SDS011;36732;47.980;11.652;2023-11-22T05:23:30;2.28;;;1.92;;
50757;SDS011;36732;47.980;11.652;2023-11-22T05:25:58;2.50;;;2.25;;
50757;SDS011;36732;47.980;11.652;2023-11-22T05:28:28;2.33;;;2.13;;
50757;SDS011;36732;47.980;11.652;2023-11-22T05:30:55;2.40;;;2.17;;
50757;SDS011;36732;47.980;11.652;2023-11-22T05:33:21;3.67;;;2.28;;
50757;SDS011;36732;47.980;11.652;2023-11-22T05:35:47;2.58;;;2.00;;
50757;SDS011;36732;47.980;11.652;2023-11-22T05:38:13;2.72;;;2.30;;
50757;SDS011;36732;47.980;11.652;2023-11-22T05:40:39;4.10;;;2.42;;
50757;SDS011;36732;47.980;11.652;2023-11-22T05:43:06;3.50;;;1.85;;
50757;SDS011;36732;47.980;11.652;2023-11-22T05:45:33;2.60;;;2.40;;
50757;SDS011;36732;47.980;11.652;2023-11-22T05:47:59;2.42;;;2.20;;
50757;SDS011;36732;47.980;11.652;2023-11-22T05:50:25;3.30;;;2.70;;
50757;SDS011;36732;47.980;11.652;2023-11-22T05:52:51;2.67;;;1.98;;
50757;SDS011;36732;47.980;11.652;2023-11-22T05:55:17;2.70;;;2.28;;
50757;SDS011;36732;47.980;11.652;2023-11-22T05:57:43;2.55;;;2.35;;
50757;SDS011;36732;47.980;11.652;2023-11-22T06:00:10;2.50;;;2.30;;
50757;SDS011;36732;47.980;11.652;2023-11-22T06:02:39;1.98;;;1.80;;
50757;SDS011;36732;47.980;11.652;2023-11-22T06:05:05;2.00;;;1.80;;
50757;SDS011;36732;47.980;11.652;2023-11-22T06:07:31;1.75;;;1.55;;
50757;SDS011;36732;47.980;11.652;2023-11-22T06:09:57;2.03;;;1.73;;
50757;SDS011;36732;47.980;11.652;2023-11-22T06:12:23;2.97;;;2.33;;
50757;SDS011;36732;47.980;11.652;2023-11-22T06:14:48;2.13;;;1.90;;
50757;SDS011;36732;47.980;11.652;2023-11-22T06:17:14;1.67;;;1.58;;
50757;SDS011;36732;47.980;11.652;2023-11-22T06:19:40;2.13;;;1.80;;
50757;SDS011;36732;47.980;11.652;2023-11-22T06:22:08;2.00;;;1.75;;
50757;SDS011;36732;47.980;11.652;2023-11-22T06:24:34;2.47;;;1.98;;
50757;SDS011;36732;47.980;11.652;2023-11-22T06:27:01;2.90;;;2.10;;
50757;SDS011;36732;47.980;11.652;2023-11-22T06:29:28;2.08;;;1.83;;
50757;SDS011;36732;47.980;11.652;2023-11-22T06:31:54;3.63;;;2.13;;
50757;SDS011;36732;47.980;11.652;2023-11-22T06:34:19;2.05;;;1.42;;
50757;SDS011;36732;47.980;11.652;2023-11-22T06:36:45;1.80;;;1.70;;
50757;SDS011;36732;47.980;11.652;2023-11-22T06:39:11;1.98;;;1.80;;
50757;SDS011;36732;47.980;11.652;2023-11-22T06:41:39;2.58;;;2.25;;
50757;SDS011;36732;47.980;11.652;2023-11-22T06:44:06;2.20;;;2.00;;
50757;SDS011;36732;47.980;11.652;2023-11-22T06:46:32;1.98;;;1.80;;
50757;SDS011;36732;47.980;11.652;2023-11-22T06:48:58;3.83;;;1.90;;
50757;SDS011;36732;47.980;11.652;2023-11-22T06:51:23;2.55;;;2.17;;
50757;SDS011;36732;47.980;11.652;2023-11-22T06:53:50;3.30;;;1.88;;
50757;SDS011;36732;47.980;11.652;2023-11-22T06:56:17;2.33;;;1.98;;
50757;SDS011;36732;47.980;11.652;2023-11-22T06:58:43;2.10;;;1.88;;
50757;SDS011;36732;47.980;11.652;2023-11-22T07:01:08;1.92;;;1.80;;
50757;SDS011;36732;47.980;11.652;2023-11-22T07:03:35;2.20;;;2.00;;
50757;SDS011;36732;47.980;11.652;2023-11-22T07:06:03;2.33;;;2.00;;
50757;SDS011;36732;47.980;11.652;2023-11-22T07:08:29;2.65;;;2.45;;
50757;SDS011;36732;47.980;11.652;2023-11-22T07:10:55;2.40;;;2.05;;
50757;SDS011;36732;47.980;11.652;2023-11-22T07:13:24;2.08;;;1.88;;
50757;SDS011;36732;47.980;11.652;2023-11-22T07:15:50;2.22;;;2.03;;
50757;SDS011;36732;47.980;11.652;2023-11-22T07:18:16;3.10;;;2.70;;
50757;SDS011;36732;47.980;11.652;2023-11-22T07:20:42;2.38;;;2.00;;
50757;SDS011;36732;47.980;11.652;2023-11-22T07:26:49;3.40;;;2.25;;
50757;SDS011;36732;47.980;11.652;2023-11-22T07:29:14;2.38;;;2.08;;
50757;SDS011;36732;47.980;11.652;2023-11-22T07:31:40;2.45;;;2.25;;
50757;SDS011;36732;47.980;11.652;2023-11-22T07:34:07;2.50;;;2.30;;
50757;SDS011;36732;47.980;11.652;2023-11-22T07:36:37;3.35;;;2.40;;
50757;SDS011;36732;47.980;11.652;2023-11-22T07:39:05;2.38;;;2.17;;
50757;SDS011;36732;47.980;11.652;2023-11-22T07:41:31;2.53;;;2.30;;
50757;SDS011;36732;47.980;11.652;2023-11-22T07:43:57;2.47;;;2.15;;
50757;SDS011;36732;47.980;11.652;2023-11-22T07:46:23;3.15;;;2.47;;
50757;SDS011;36732;47.980;11.652;2023-11-22T07:48:49;3.28;;;2.65;;
50757;SDS011;36732;47.980;11.652;2023-11-22T07:51:15;3.03;;;2.72;;
50757;SDS011;36732;47.980;11.652;2023-11-22T07:53:41;3.33;;;2.78;;
50757;SDS011;36732;47.980;11.652;2023-11-22T07:56:08;2.60;;;2.40;;
50757;SDS011;36732;47.980;11.652;2023-11-22T07:58:36;3.00;;;2.70;;
50757;SDS011;36732;47.980;11.652;2023-11-22T08:01:03;3.78;;;2.45;;
50757;SDS011;36732;47.980;11.652;2023-11-22T08:03:31;3.10;;;2.80;;
50757;SDS011;36732;47.980;11.652;2023-11-22T08:05:56;2.78;;;2.40;;
50757;SDS011;36732;47.980;11.652;2023-11-22T08:08:22;4.20;;;2.55;;
50757;SDS011;36732;47.980;11.652;2023-11-22T08:10:49;3.80;;;2.30;;
50757;SDS011;36732;47.980;11.652;2023-11-22T08:13:18;3.13;;;2.40;;
50757;SDS011;36732;47.980;11.652;2023-11-22T08:15:47;3.10;;;2.53;;
50757;SDS011;36732;47.980;11.652;2023-11-22T08:18:13;3.65;;;2.47;;
50757;SDS011;36732;47.980;11.652;2023-11-22T08:20:41;3.83;;;2.97;;
50757;SDS011;36732;47.980;11.652;2023-11-22T08:23:08;3.42;;;3.00;;
50757;SDS011;36732;47.980;11.652;2023-11-22T08:25:35;3.47;;;2.60;;
50757;SDS011;36732;47.980;11.652;2023-11-22T08:28:03;2.83;;;2.40;;
50757;SDS011;36732;47.980;11.652;2023-11-22T08:30:29;3.20;;;2.38;;
50757;SDS011;36732;47.980;11.652;2023-11-22T08:32:58;4.85;;;3.03;;
50757;SDS011;36732;47.980;11.652;2023-11-22T08:35:23;3.00;;;2.70;;
50757;SDS011;36732;47.980;11.652;2023-11-22T08:37:49;3.17;;;2.83;;
50757;SDS011;36732;47.980;11.652;2023-11-22T08:40:15;4.40;;;2.55;;
50757;SDS011;36732;47.980;11.652;2023-11-22T08:42:45;3.55;;;2.70;;
50757;SDS011;36732;47.980;11.652;2023-11-22T08:45:11;3.63;;;2.80;;
50757;SDS011;36732;47.980;11.652;2023-11-22T08:47:38;2.50;;;2.30;;
50757;SDS011;36732;47.980;11.652;2023-11-22T08:50:06;3.42;;;2.58;;
50757;SDS011;36732;47.980;11.652;2023-11-22T08:52:33;2.45;;;2.20;;
50757;SDS011;36732;47.980;11.652;2023-11-22T08:54:59;4.30;;;2.67;;
50757;SDS011;36732;47.980;11.652;2023-11-22T08:57:26;2.63;;;2.28;;
50757;SDS011;36732;47.980;11.652;2023-11-22T08:59:52;3.00;;;2.60;;
50757;SDS011;36732;47.980;11.652;2023-11-22T09:02:18;3.72;;;2.80;;
50757;SDS011;36732;47.980;11.652;2023-11-22T09:04:47;4.07;;;3.20;;
50757;SDS011;36732;47.980;11.652;2023-11-22T09:07:13;3.90;;;2.30;;
50757;SDS011;36732;47.980;11.652;2023-11-22T09:09:41;2.70;;;2.33;;
50757;SDS011;36732;47.980;11.652;2023-11-22T09:12:08;3.17;;;2.40;;
50757;SDS011;36732;47.980;11.652;2023-11-22T09:14:38;2.35;;;2.15;;
50757;SDS011;36732;47.980;11.652;2023-11-22T09:17:07;2.47;;;2.28;;
50757;SDS011;36732;47.980;11.652;2023-11-22T09:19:34;3.38;;;2.38;;
50757;SDS011;36732;47.980;11.652;2023-11-22T09:22:00;3.03;;;2.72;;
50757;SDS011;36732;47.980;11.652;2023-11-22T09:24:26;3.13;;;2.72;;
50757;SDS011;36732;47.980;11.652;2023-11-22T09:26:52;2.47;;;2.00;;
50757;SDS011;36732;47.980;11.652;2023-11-22T09:29:18;2.95;;;2.03;;
50757;SDS011;36732;47.980;11.652;2023-11-22T09:31:44;2.60;;;2.25;;
50757;SDS011;36732;47.980;11.652;2023-11-22T09:34:12;2.20;;;2.00;;
50757;SDS011;36732;47.980;11.652;2023-11-22T09:36:38;2.58;;;2.38;;
50757;SDS011;36732;47.980;11.652;2023-11-22T09:39:04;3.10;;;2.78;;
50757;SDS011;36732;47.980;11.652;2023-11-22T09:41:34;5.97;;;2.70;;
50757;SDS011;36732;47.980;11.652;2023-11-22T09:44:00;2.88;;;2.53;;
50757;SDS011;36732;47.980;11.652;2023-11-22T09:46:26;2.97;;;2.60;;
50757;SDS011;36732;47.980;11.652;2023-11-22T09:48:54;2.83;;;2.45;;
50757;SDS011;36732;47.980;11.652;2023-11-22T09:51:26;4.78;;;2.67;;
50757;SDS011;36732;47.980;11.652;2023-11-22T09:54:00;3.55;;;2.70;;
50757;SDS011;36732;47.980;11.652;2023-11-22T09:56:32;4.38;;;2.70;;
50757;SDS011;36732;47.980;11.652;2023-11-22T09:59:01;3.10;;;2.80;;
50757;SDS011;36732;47.980;11.652;2023-11-22T10:01:29;3.80;;;2.95;;
50757;SDS011;36732;47.980;11.652;2023-11-22T10:03:56;3.58;;;2.35;;
50757;SDS011;36732;47.980;11.652;2023-11-22T10:06:23;2.40;;;2.15;;
50757;SDS011;36732;47.980;11.652;2023-11-22T10:08:50;4.20;;;2.50;;
50757;SDS011;36732;47.980;11.652;2023-11-22T10:11:18;2.47;;;2.28;;
50757;SDS011;36732;47.980;11.652;2023-11-22T10:13:48;3.25;;;2.63;;
50757;SDS011;36732;47.980;11.652;2023-11-22T10:16:16;2.10;;;1.90;;
50757;SDS011;36732;47.980;11.652;2023-11-22T10:18:43;1.98;;;1.85;;
50757;SDS011;36732;47.980;11.652;2023-11-22T10:23:52;2.35;;;2.15;;
50757;SDS011;36732;47.980;11.652;2023-11-22T10:26:21;2.58;;;2.35;;
50757;SDS011;36732;47.980;11.652;2023-11-22T10:28:50;2.08;;;1.88;;
50757;SDS011;36732;47.980;11.652;2023-11-22T10:31:17;2.00;;;1.80;;
50757;SDS011;36732;47.980;11.652;2023-11-22T10:33:44;2.13;;;1.92;;
50757;SDS011;36732;47.980;11.652;2023-11-22T10:36:11;2.45;;;2.25;;
50757;SDS011;36732;47.980;11.652;2023-11-22T10:38:37;2.20;;;2.00;;
50757;SDS011;36732;47.980;11.652;2023-11-22T10:41:06;2.25;;;2.05;;
50757;SDS011;36732;47.980;11.652;2023-11-22T10:43:34;2.60;;;2.40;;
50757;SDS011;36732;47.980;11.652;2023-11-22T10:46:03;2.30;;;2.10;;
50757;SDS011;36732;47.980;11.652;2023-11-22T10:48:31;2.50;;;2.30;;
50757;SDS011;36732;47.980;11.652;2023-11-22T10:51:01;2.63;;;2.42;;
50757;SDS011;36732;47.980;11.652;2023-11-22T10:53:32;2.63;;;2.42;;
50757;SDS011;36732;47.980;11.652;2023-11-22T10:56:15;4.70;;;3.20;;
50757;SDS011;36732;47.980;11.652;2023-11-22T11:01:25;3.10;;;2.30;;
50757;SDS011;36732;47.980;11.652;2023-11-22T11:06:36;2.30;;;2.10;;
50757;SDS011;36732;47.980;11.652;2023-11-22T11:09:05;3.08;;;2.20;;
50757;SDS011;36732;47.980;11.652;2023-11-22T11:11:36;2.30;;;2.10;;
50757;SDS011;36732;47.980;11.652;2023-11-22T11:14:04;2.58;;;2.10;;
50757;SDS011;36732;47.980;11.652;2023-11-22T11:16:32;1.80;;;1.70;;
50757;SDS011;36732;47.980;11.652;2023-11-22T11:19:02;3.80;;;2.40;;
50757;SDS011;36732;47.980;11.652;2023-11-22T11:21:30;2.10;;;1.90;;
50757;SDS011;36732;47.980;11.652;2023-11-22T11:23:57;2.72;;;2.20;;
50757;SDS011;36732;47.980;11.652;2023-11-22T11:26:28;2.30;;;2.10;;
50757;SDS011;36732;47.980;11.652;2023-11-22T11:28:57;2.20;;;2.00;;
50757;SDS011;36732;47.980;11.652;2023-11-22T11:31:23;3.67;;;2.40;;
50757;SDS011;36732;47.980;11.652;2023-11-22T11:38:52;2.40;;;2.20;;
50757;SDS011;36732;47.980;11.652;2023-11-22T11:41:25;2.28;;;2.08;;
50757;SDS011;36732;47.980;11.652;2023-11-22T11:43:53;2.00;;;1.80;;
50757;SDS011;36732;47.980;11.652;2023-11-22T11:46:19;2.55;;;2.20;;
50757;SDS011;36732;47.980;11.652;2023-11-22T11:48:48;2.58;;;2.10;;
50757;SDS011;36732;47.980;11.652;2023-11-22T11:51:19;2.33;;;2.13;;
50757;SDS011;36732;47.980;11.652;2023-11-22T11:53:49;2.13;;;1.90;;
50757;SDS011;36732;47.980;11.652;2023-11-22T11:56:15;4.65;;;1.83;;
50757;SDS011;36732;47.980;11.652;2023-11-22T11:58:42;2.47;;;1.88;;
50757;SDS011;36732;47.980;11.652;2023-11-22T12:01:13;1.92;;;1.60;;
50757;SDS011;36732;47.980;11.652;2023-11-22T12:03:41;3.65;;;2.03;;
50757;SDS011;36732;47.980;11.652;2023-11-22T12:06:08;1.73;;;1.63;;
50757;SDS011;36732;47.980;11.652;2023-11-22T12:08:35;2.20;;;1.90;;
50757;SDS011;36732;47.980;11.652;2023-11-22T12:11:03;2.30;;;1.50;;
50757;SDS011;36732;47.980;11.652;2023-11-22T12:13:32;2.65;;;1.85;;
50757;SDS011;36732;47.980;11.652;2023-11-22T12:15:57;2.60;;;2.40;;
50757;SDS011;36732;47.980;11.652;2023-11-22T12:18:23;2.47;;;2.28;;
50757;SDS011;36732;47.980;11.652;2023-11-22T12:20:59;2.47;;;1.95;;
50757;SDS011;36732;47.980;11.652;2023-11-22T12:23:25;2.33;;;2.13;;
50757;SDS011;36732;47.980;11.652;2023-11-22T12:25:56;3.58;;;2.17;;
50757;SDS011;36732;47.980;11.652;2023-11-22T12:28:29;4.07;;;2.60;;
50757;SDS011;36732;47.980;11.652;2023-11-22T12:31:06;2.70;;;2.20;;
50757;SDS011;36732;47.980;11.652;2023-11-22T12:33:35;2.28;;;2.08;;
50757;SDS011;36732;47.980;11.652;2023-11-22T12:36:02;2.50;;;2.30;;
50757;SDS011;36732;47.980;11.652;2023-11-22T12:38:29;2.53;;;2.30;;
50757;SDS011;36732;47.980;11.652;2023-11-22T12:40:56;1.42;;;1.33;;
50757;SDS011;36732;47.980;11.652;2023-11-22T12:43:23;1.98;;;1.80;;
50757;SDS011;36732;47.980;11.652;2023-11-22T12:46:13;3.22;;;2.22;;
50757;SDS011;36732;47.980;11.652;2023-11-22T12:48:41;2.78;;;1.70;;
50757;SDS011;36732;47.980;11.652;2023-11-22T12:51:17;1.95;;;1.70;;
50757;SDS011;36732;47.980;11.652;2023-11-22T12:53:47;3.25;;;2.20;;
50757;SDS011;36732;47.980;11.652;2023-11-22T12:56:14;2.65;;;2.30;;
50757;SDS011;36732;47.980;11.652;2023-11-22T12:58:40;2.97;;;2.15;;
50757;SDS011;36732;47.980;11.652;2023-11-22T13:01:06;2.25;;;2.05;;
50757;SDS011;36732;47.980;11.652;2023-11-22T13:03:31;3.08;;;2.38;;
50757;SDS011;36732;47.980;11.652;2023-11-22T13:05:58;2.63;;;1.85;;
50757;SDS011;36732;47.980;11.652;2023-11-22T13:08:23;1.85;;;1.70;;
50757;SDS011;36732;47.980;11.652;2023-11-22T13:10:54;2.03;;;1.83;;
50757;SDS011;36732;47.980;11.652;2023-11-22T13:13:23;2.05;;;1.80;;
50757;SDS011;36732;47.980;11.652;2023-11-22T13:15:50;3.70;;;1.95;;
50757;SDS011;36732;47.980;11.652;2023-11-22T13:18:17;1.98;;;1.73;;
50757;SDS011;36732;47.980;11.652;2023-11-22T13:20:43;1.95;;;1.75;;
50757;SDS011;36732;47.980;11.652;2023-11-22T13:23:09;2.15;;;1.95;;
50757;SDS011;36732;47.980;11.652;2023-11-22T13:25:35;1.75;;;1.65;;
50757;SDS011;36732;47.980;11.652;2023-11-22T13:28:01;1.77;;;1.60;;
50757;SDS011;36732;47.980;11.652;2023-11-22T13:30:29;2.17;;;1.98;;
50757;SDS011;36732;47.980;11.652;2023-11-22T13:32:55;2.15;;;1.92;;
50757;SDS011;36732;47.980;11.652;2023-11-22T13:35:22;3.53;;;2.30;;
50757;SDS011;36732;47.980;11.652;2023-11-22T13:38:02;3.10;;;2.28;;
50757;SDS011;36732;47.980;11.652;2023-11-22T13:40:32;2.55;;;1.90;;
50757;SDS011;36732;47.980;11.652;2023-11-22T13:42:58;3.35;;;2.47;;
50757;SDS011;36732;47.980;11.652;2023-11-22T13:45:24;2.95;;;2.65;;
50757;SDS011;36732;47.980;11.652;2023-11-22T13:47:51;3.00;;;2.65;;
50757;SDS011;36732;47.980;11.652;2023-11-22T13:50:22;3.13;;;2.60;;
50757;SDS011;36732;47.980;11.652;2023-11-22T13:52:51;3.03;;;2.72;;
50757;SDS011;36732;47.980;11.652;2023-11-22T13:55:19;4.43;;;2.70;;
50757;SDS011;36732;47.980;11.652;2023-11-22T13:57:48;2.38;;;2.13;;
50757;SDS011;36732;47.980;11.652;2023-11-22T14:00:18;3.08;;;2.28;;
50757;SDS011;36732;47.980;11.652;2023-11-22T14:02:50;3.40;;;2.92;;
50757;SDS011;36732;47.980;11.652;2023-11-22T14:05:17;6.65;;;4.50;;
50757;SDS011;36732;47.980;11.652;2023-11-22T14:07:44;3.28;;;2.97;;
50757;SDS011;36732;47.980;11.652;2023-11-22T14:10:10;4.38;;;2.80;;
50757;SDS011;36732;47.980;11.652;2023-11-22T14:12:36;5.00;;;4.03;;
50757;SDS011;36732;47.980;11.652;2023-11-22T14:15:03;3.30;;;2.95;;
50757;SDS011;36732;47.980;11.652;2023-11-22T14:17:30;5.03;;;4.53;;
50757;SDS011;36732;47.980;11.652;2023-11-22T14:19:55;5.40;;;4.18;;
50757;SDS011;36732;47.980;11.652;2023-11-22T14:22:22;5.18;;;4.68;;
50757;SDS011;36732;47.980;11.652;2023-11-22T14:24:51;3.55;;;3.25;;
50757;SDS011;36732;47.980;11.652;2023-11-22T14:27:20;4.40;;;2.70;;
50757;SDS011;36732;47.980;11.652;2023-11-22T14:29:46;4.18;;;2.78;;
50757;SDS011;36732;47.980;11.652;2023-11-22T14:32:16;4.10;;;2.83;;
50757;SDS011;36732;47.980;11.652;2023-11-22T14:34:43;3.50;;;2.65;;
50757;SDS011;36732;47.980;11.652;2023-11-22T14:37:09;3.00;;;2.78;;
50757;SDS011;36732;47.980;11.652;2023-11-22T14:39:36;2.55;;;2.33;;
50757;SDS011;36732;47.980;11.652;2023-11-22T14:42:02;7.63;;;2.50;;
50757;SDS011;36732;47.980;11.652;2023-11-22T14:44:30;2.13;;;1.98;;
50757;SDS011;36732;47.980;11.652;2023-11-22T14:46:56;2.53;;;2.33;;
50757;SDS011;36732;47.980;11.652;2023-11-22T14:49:23;2.50;;;2.30;;